sensor_id;sensor_type;location;lat;lon;timestamp;P1;durP1;ratioP1;P2;durP2;ratioP2
34200;SDS011;20469;55.638;37.670;2024-01-11T00:00:43;6.57;;;3.07;;
34200;SDS011;20469;55.638;37.670;2024-01-11T00:03:12;4.90;;;3.27;;
34200;SDS011;20469;55.638;37.670;2024-01-11T00:05:40;7.47;;;4.70;;
34200;SDS011;20469;55.638;37.670;2024-01-11T00:08:08;3.93;;;2.53;;
34200;SDS011;20469;55.638;37.670;2024-01-11T00:10:38;3.60;;;2.60;;
34200;SDS011;20469;55.638;37.670;2024-01-11T00:13:05;4.83;;;3.27;;
34200;SDS011;20469;55.638;37.670;2024-01-11T00:15:33;5.87;;;3.37;;
34200;SDS011;20469;55.638;37.670;2024-01-11T00:18:01;5.93;;;3.13;;
34200;SDS011;20469;55.638;37.670;2024-01-11T00:20:30;6.57;;;3.57;;
34200;SDS011;20469;55.638;37.670;2024-01-11T00:22:58;4.13;;;2.70;;
34200;SDS011;20469;55.638;37.670;2024-01-11T00:25:26;4.50;;;2.57;;
34200;SDS011;20469;55.638;37.670;2024-01-11T00:27:54;3.53;;;2.57;;
34200;SDS011;20469;55.638;37.670;2024-01-11T00:30:22;2.27;;;1.97;;
34200;SDS011;20469;55.638;37.670;2024-01-11T00:32:50;6.70;;;3.90;;
34200;SDS011;20469;55.638;37.670;2024-01-11T00:35:18;4.10;;;2.47;;
34200;SDS011;20469;55.638;37.670;2024-01-11T00:37:46;3.93;;;3.27;;
34200;SDS011;20469;55.638;37.670;2024-01-11T00:40:14;5.73;;;3.53;;
34200;SDS011;20469;55.638;37.670;2024-01-11T00:42:43;4.77;;;3.27;;
34200;SDS011;20469;55.638;37.670;2024-01-11T00:45:11;4.07;;;2.87;;
34200;SDS011;20469;55.638;37.670;2024-01-11T00:47:39;5.70;;;3.70;;
34200;SDS011;20469;55.638;37.670;2024-01-11T00:50:07;5.27;;;3.57;;
34200;SDS011;20469;55.638;37.670;2024-01-11T00:52:36;4.80;;;3.30;;
34200;SDS011;20469;55.638;37.670;2024-01-11T00:55:05;5.77;;;3.77;;
34200;SDS011;20469;55.638;37.670;2024-01-11T00:57:33;4.93;;;2.83;;
34200;SDS011;20469;55.638;37.670;2024-01-11T01:00:01;4.67;;;2.50;;
34200;SDS011;20469;55.638;37.670;2024-01-11T01:02:30;7.77;;;4.10;;
34200;SDS011;20469;55.638;37.670;2024-01-11T01:04:58;4.40;;;3.40;;
34200;SDS011;20469;55.638;37.670;2024-01-11T01:07:25;5.67;;;3.10;;
34200;SDS011;20469;55.638;37.670;2024-01-11T01:09:53;6.60;;;3.60;;
34200;SDS011;20469;55.638;37.670;2024-01-11T01:12:21;4.30;;;2.30;;
34200;SDS011;20469;55.638;37.670;2024-01-11T01:14:49;5.80;;;3.87;;
34200;SDS011;20469;55.638;37.670;2024-01-11T01:17:16;4.63;;;2.60;;
34200;SDS011;20469;55.638;37.670;2024-01-11T01:19:47;4.17;;;2.70;;
34200;SDS011;20469;55.638;37.670;2024-01-11T01:22:15;6.10;;;3.50;;
34200;SDS011;20469;55.638;37.670;2024-01-11T01:24:42;3.47;;;2.20;;
34200;SDS011;20469;55.638;37.670;2024-01-11T01:27:10;3.67;;;2.40;;
34200;SDS011;20469;55.638;37.670;2024-01-11T01:29:40;3.67;;;2.73;;
34200;SDS011;20469;55.638;37.670;2024-01-11T01:32:08;3.90;;;2.43;;
34200;SDS011;20469;55.638;37.670;2024-01-11T01:34:35;6.33;;;2.90;;
34200;SDS011;20469;55.638;37.670;2024-01-11T01:37:03;3.83;;;2.50;;
34200;SDS011;20469;55.638;37.670;2024-01-11T01:39:31;4.23;;;2.57;;
34200;SDS011;20469;55.638;37.670;2024-01-11T01:41:59;5.60;;;3.60;;
34200;SDS011;20469;55.638;37.670;2024-01-11T01:44:27;3.43;;;2.27;;
34200;SDS011;20469;55.638;37.670;2024-01-11T01:46:54;4.20;;;3.13;;
34200;SDS011;20469;55.638;37.670;2024-01-11T01:49:23;4.07;;;3.00;;
34200;SDS011;20469;55.638;37.670;2024-01-11T01:51:51;4.23;;;2.40;;
34200;SDS011;20469;55.638;37.670;2024-01-11T01:54:19;3.07;;;1.97;;
34200;SDS011;20469;55.638;37.670;2024-01-11T01:56:48;4.37;;;2.90;;
34200;SDS011;20469;55.638;37.670;2024-01-11T01:59:16;5.87;;;3.33;;
34200;SDS011;20469;55.638;37.670;2024-01-11T02:01:46;5.37;;;3.03;;
34200;SDS011;20469;55.638;37.670;2024-01-11T02:04:15;4.60;;;3.33;;
34200;SDS011;20469;55.638;37.670;2024-01-11T02:06:43;3.43;;;2.60;;
34200;SDS011;20469;55.638;37.670;2024-01-11T02:09:12;3.90;;;2.77;;
34200;SDS011;20469;55.638;37.670;2024-01-11T02:11:44;3.17;;;2.33;;
34200;SDS011;20469;55.638;37.670;2024-01-11T02:14:12;4.57;;;3.13;;
34200;SDS011;20469;55.638;37.670;2024-01-11T02:16:40;4.70;;;2.77;;
34200;SDS011;20469;55.638;37.670;2024-01-11T02:19:10;4.57;;;2.70;;
34200;SDS011;20469;55.638;37.670;2024-01-11T02:21:42;4.10;;;2.60;;
34200;SDS011;20469;55.638;37.670;2024-01-11T02:24:11;3.60;;;2.42;;
34200;SDS011;20469;55.638;37.670;2024-01-11T02:26:58;3.73;;;2.27;;
34200;SDS011;20469;55.638;37.670;2024-01-11T02:29:26;3.77;;;2.17;;
34200;SDS011;20469;55.638;37.670;2024-01-11T02:31:55;3.47;;;2.30;;
34200;SDS011;20469;55.638;37.670;2024-01-11T02:34:26;4.72;;;2.38;;
34200;SDS011;20469;55.638;37.670;2024-01-11T02:36:54;4.88;;;2.40;;
34200;SDS011;20469;55.638;37.670;2024-01-11T02:39:23;3.15;;;2.00;;
34200;SDS011;20469;55.638;37.670;2024-01-11T02:41:51;3.60;;;2.30;;
34200;SDS011;20469;55.638;37.670;2024-01-11T02:44:19;3.72;;;1.95;;
34200;SDS011;20469;55.638;37.670;2024-01-11T02:46:47;4.65;;;2.60;;
34200;SDS011;20469;55.638;37.670;2024-01-11T02:49:16;5.32;;;2.25;;
34200;SDS011;20469;55.638;37.670;2024-01-11T02:51:44;5.20;;;2.63;;
34200;SDS011;20469;55.638;37.670;2024-01-11T02:54:11;7.00;;;2.80;;
34200;SDS011;20469;55.638;37.670;2024-01-11T02:56:39;4.60;;;2.50;;
34200;SDS011;20469;55.638;37.670;2024-01-11T02:59:09;6.82;;;2.63;;
34200;SDS011;20469;55.638;37.670;2024-01-11T03:01:36;7.82;;;2.83;;
34200;SDS011;20469;55.638;37.670;2024-01-11T03:04:05;5.10;;;2.88;;
34200;SDS011;20469;55.638;37.670;2024-01-11T03:06:33;5.70;;;2.70;;
34200;SDS011;20469;55.638;37.670;2024-01-11T03:09:01;5.13;;;2.35;;
34200;SDS011;20469;55.638;37.670;2024-01-11T03:11:29;4.32;;;2.20;;
34200;SDS011;20469;55.638;37.670;2024-01-11T03:13:57;7.07;;;2.78;;
34200;SDS011;20469;55.638;37.670;2024-01-11T03:16:24;5.38;;;2.55;;
34200;SDS011;20469;55.638;37.670;2024-01-11T03:18:52;4.63;;;2.30;;
34200;SDS011;20469;55.638;37.670;2024-01-11T03:21:20;3.63;;;1.92;;
34200;SDS011;20469;55.638;37.670;2024-01-11T03:23:48;3.33;;;2.17;;
34200;SDS011;20469;55.638;37.670;2024-01-11T03:26:16;5.38;;;2.53;;
34200;SDS011;20469;55.638;37.670;2024-01-11T03:28:44;4.80;;;2.25;;
34200;SDS011;20469;55.638;37.670;2024-01-11T03:31:13;4.90;;;2.45;;
34200;SDS011;20469;55.638;37.670;2024-01-11T03:33:41;5.97;;;2.50;;
34200;SDS011;20469;55.638;37.670;2024-01-11T03:36:09;3.05;;;2.00;;
34200;SDS011;20469;55.638;37.670;2024-01-11T03:38:37;4.85;;;2.10;;
34200;SDS011;20469;55.638;37.670;2024-01-11T03:41:09;4.35;;;2.22;;
34200;SDS011;20469;55.638;37.670;2024-01-11T03:43:37;3.90;;;2.30;;
34200;SDS011;20469;55.638;37.670;2024-01-11T03:46:05;3.42;;;2.20;;
34200;SDS011;20469;55.638;37.670;2024-01-11T03:48:33;1.98;;;1.58;;
34200;SDS011;20469;55.638;37.670;2024-01-11T03:51:05;2.83;;;1.75;;
34200;SDS011;20469;55.638;37.670;2024-01-11T03:53:36;1.80;;;1.50;;
34200;SDS011;20469;55.638;37.670;2024-01-11T03:56:04;2.08;;;1.63;;
34200;SDS011;20469;55.638;37.670;2024-01-11T03:58:32;2.03;;;1.60;;
34200;SDS011;20469;55.638;37.670;2024-01-11T04:01:00;2.17;;;1.45;;
34200;SDS011;20469;55.638;37.670;2024-01-11T04:03:28;2.92;;;1.58;;
34200;SDS011;20469;55.638;37.670;2024-01-11T04:05:56;2.45;;;1.40;;
34200;SDS011;20469;55.638;37.670;2024-01-11T04:08:24;2.70;;;1.50;;
34200;SDS011;20469;55.638;37.670;2024-01-11T04:10:51;3.75;;;1.30;;
34200;SDS011;20469;55.638;37.670;2024-01-11T04:13:19;2.30;;;1.30;;
34200;SDS011;20469;55.638;37.670;2024-01-11T04:15:50;1.45;;;1.35;;
34200;SDS011;20469;55.638;37.670;2024-01-11T04:18:18;2.20;;;1.63;;
34200;SDS011;20469;55.638;37.670;2024-01-11T04:20:46;1.45;;;1.15;;
34200;SDS011;20469;55.638;37.670;2024-01-11T04:23:14;1.83;;;1.38;;
34200;SDS011;20469;55.638;37.670;2024-01-11T04:25:42;1.65;;;1.30;;
34200;SDS011;20469;55.638;37.670;2024-01-11T04:28:10;1.10;;;1.00;;
34200;SDS011;20469;55.638;37.670;2024-01-11T04:30:38;1.25;;;1.00;;
34200;SDS011;20469;55.638;37.670;2024-01-11T04:33:06;0.90;;;0.90;;
34200;SDS011;20469;55.638;37.670;2024-01-11T04:35:34;2.35;;;1.15;;
34200;SDS011;20469;55.638;37.670;2024-01-11T04:38:02;2.38;;;1.15;;
34200;SDS011;20469;55.638;37.670;2024-01-11T04:40:30;2.78;;;1.10;;
34200;SDS011;20469;55.638;37.670;2024-01-11T04:42:58;1.48;;;1.35;;
34200;SDS011;20469;55.638;37.670;2024-01-11T04:45:26;2.90;;;1.73;;
34200;SDS011;20469;55.638;37.670;2024-01-11T04:47:54;1.90;;;1.27;;
34200;SDS011;20469;55.638;37.670;2024-01-11T04:50:23;1.83;;;1.25;;
34200;SDS011;20469;55.638;37.670;2024-01-11T04:52:51;1.23;;;0.85;;
34200;SDS011;20469;55.638;37.670;2024-01-11T04:55:18;1.27;;;1.10;;
34200;SDS011;20469;55.638;37.670;2024-01-11T04:57:46;1.25;;;1.00;;
34200;SDS011;20469;55.638;37.670;2024-01-11T05:00:14;3.33;;;1.63;;
34200;SDS011;20469;55.638;37.670;2024-01-11T05:02:42;1.23;;;0.82;;
34200;SDS011;20469;55.638;37.670;2024-01-11T05:05:10;1.35;;;1.00;;
34200;SDS011;20469;55.638;37.670;2024-01-11T05:07:38;2.03;;;1.13;;
34200;SDS011;20469;55.638;37.670;2024-01-11T05:10:08;1.77;;;1.30;;
34200;SDS011;20469;55.638;37.670;2024-01-11T05:12:35;1.73;;;1.17;;
34200;SDS011;20469;55.638;37.670;2024-01-11T05:15:05;1.45;;;1.08;;
34200;SDS011;20469;55.638;37.670;2024-01-11T05:17:35;1.65;;;1.10;;
34200;SDS011;20469;55.638;37.670;2024-01-11T05:20:04;1.67;;;0.85;;
34200;SDS011;20469;55.638;37.670;2024-01-11T05:22:32;3.67;;;1.40;;
34200;SDS011;20469;55.638;37.670;2024-01-11T05:25:00;2.20;;;1.00;;
34200;SDS011;20469;55.638;37.670;2024-01-11T05:27:29;2.67;;;1.10;;
34200;SDS011;20469;55.638;37.670;2024-01-11T05:29:58;1.38;;;1.25;;
34200;SDS011;20469;55.638;37.670;2024-01-11T05:32:26;2.33;;;1.30;;
34200;SDS011;20469;55.638;37.670;2024-01-11T05:34:54;2.10;;;1.10;;
34200;SDS011;20469;55.638;37.670;2024-01-11T05:37:22;2.47;;;1.40;;
34200;SDS011;20469;55.638;37.670;2024-01-11T05:39:50;1.77;;;1.05;;
34200;SDS011;20469;55.638;37.670;2024-01-11T05:42:18;1.88;;;1.00;;
34200;SDS011;20469;55.638;37.670;2024-01-11T05:44:46;4.28;;;1.50;;
34200;SDS011;20469;55.638;37.670;2024-01-11T05:47:13;0.90;;;0.80;;
34200;SDS011;20469;55.638;37.670;2024-01-11T05:49:41;22.10;;;4.35;;
34200;SDS011;20469;55.638;37.670;2024-01-11T05:52:09;1.88;;;1.20;;
34200;SDS011;20469;55.638;37.670;2024-01-11T05:54:37;4.95;;;1.20;;
34200;SDS011;20469;55.638;37.670;2024-01-11T05:57:05;2.78;;;1.08;;
34200;SDS011;20469;55.638;37.670;2024-01-11T05:59:34;4.93;;;1.55;;
34200;SDS011;20469;55.638;37.670;2024-01-11T06:02:02;3.33;;;1.63;;
34200;SDS011;20469;55.638;37.670;2024-01-11T06:04:31;3.40;;;1.48;;
34200;SDS011;20469;55.638;37.670;2024-01-11T06:06:59;1.95;;;1.00;;
34200;SDS011;20469;55.638;37.670;2024-01-11T06:09:27;1.83;;;1.15;;
34200;SDS011;20469;55.638;37.670;2024-01-11T06:11:57;3.63;;;1.80;;
34200;SDS011;20469;55.638;37.670;2024-01-11T06:14:25;8.18;;;3.63;;
34200;SDS011;20469;55.638;37.670;2024-01-11T06:16:53;2.88;;;1.20;;
34200;SDS011;20469;55.638;37.670;2024-01-11T06:19:22;4.57;;;1.73;;
34200;SDS011;20469;55.638;37.670;2024-01-11T06:21:50;1.63;;;0.80;;
34200;SDS011;20469;55.638;37.670;2024-01-11T06:24:17;4.10;;;1.40;;
34200;SDS011;20469;55.638;37.670;2024-01-11T06:26:45;2.65;;;1.00;;
34200;SDS011;20469;55.638;37.670;2024-01-11T06:29:13;1.70;;;1.05;;
34200;SDS011;20469;55.638;37.670;2024-01-11T06:31:41;2.40;;;1.10;;
34200;SDS011;20469;55.638;37.670;2024-01-11T06:34:09;3.80;;;1.25;;
34200;SDS011;20469;55.638;37.670;2024-01-11T06:36:37;5.07;;;2.10;;
34200;SDS011;20469;55.638;37.670;2024-01-11T06:39:04;3.20;;;1.52;;
34200;SDS011;20469;55.638;37.670;2024-01-11T06:41:32;1.08;;;1.00;;
34200;SDS011;20469;55.638;37.670;2024-01-11T06:44:00;2.45;;;1.17;;
34200;SDS011;20469;55.638;37.670;2024-01-11T06:46:28;3.80;;;1.10;;
34200;SDS011;20469;55.638;37.670;2024-01-11T06:48:57;1.95;;;1.15;;
34200;SDS011;20469;55.638;37.670;2024-01-11T06:51:25;1.33;;;1.20;;
34200;SDS011;20469;55.638;37.670;2024-01-11T06:53:53;1.15;;;1.02;;
34200;SDS011;20469;55.638;37.670;2024-01-11T06:56:20;2.53;;;1.08;;
34200;SDS011;20469;55.638;37.670;2024-01-11T06:58:48;2.13;;;1.30;;
34200;SDS011;20469;55.638;37.670;2024-01-11T07:01:16;4.70;;;1.10;;
34200;SDS011;20469;55.638;37.670;2024-01-11T07:03:44;1.00;;;0.90;;
34200;SDS011;20469;55.638;37.670;2024-01-11T07:06:12;7.50;;;2.20;;
34200;SDS011;20469;55.638;37.670;2024-01-11T07:08:41;6.25;;;2.10;;
34200;SDS011;20469;55.638;37.670;2024-01-11T07:11:09;5.78;;;2.00;;
34200;SDS011;20469;55.638;37.670;2024-01-11T07:13:38;1.88;;;0.90;;
34200;SDS011;20469;55.638;37.670;2024-01-11T07:16:08;3.90;;;1.08;;
34200;SDS011;20469;55.638;37.670;2024-01-11T07:18:41;11.23;;;2.33;;
34200;SDS011;20469;55.638;37.670;2024-01-11T07:21:09;1.75;;;0.95;;
34200;SDS011;20469;55.638;37.670;2024-01-11T07:23:37;1.80;;;0.90;;
34200;SDS011;20469;55.638;37.670;2024-01-11T07:26:06;3.13;;;1.10;;
34200;SDS011;20469;55.638;37.670;2024-01-11T07:28:34;2.08;;;1.20;;
34200;SDS011;20469;55.638;37.670;2024-01-11T07:31:03;3.10;;;1.00;;
34200;SDS011;20469;55.638;37.670;2024-01-11T07:33:31;2.58;;;1.00;;
34200;SDS011;20469;55.638;37.670;2024-01-11T07:35:59;1.75;;;1.15;;
34200;SDS011;20469;55.638;37.670;2024-01-11T07:38:27;3.20;;;1.02;;
34200;SDS011;20469;55.638;37.670;2024-01-11T07:40:56;4.90;;;1.30;;
34200;SDS011;20469;55.638;37.670;2024-01-11T07:43:23;1.65;;;1.10;;
34200;SDS011;20469;55.638;37.670;2024-01-11T07:46:03;4.72;;;1.50;;
34200;SDS011;20469;55.638;37.670;2024-01-11T07:48:32;4.38;;;1.15;;
34200;SDS011;20469;55.638;37.670;2024-01-11T07:51:00;4.03;;;1.50;;
34200;SDS011;20469;55.638;37.670;2024-01-11T07:53:29;0.98;;;0.90;;
34200;SDS011;20469;55.638;37.670;2024-01-11T07:55:58;2.03;;;1.10;;
34200;SDS011;20469;55.638;37.670;2024-01-11T07:58:25;2.65;;;1.08;;
34200;SDS011;20469;55.638;37.670;2024-01-11T08:00:53;2.28;;;1.38;;
34200;SDS011;20469;55.638;37.670;2024-01-11T08:03:21;1.10;;;0.73;;
34200;SDS011;20469;55.638;37.670;2024-01-11T08:05:49;1.48;;;0.80;;
34200;SDS011;20469;55.638;37.670;2024-01-11T08:08:17;2.45;;;0.90;;
34200;SDS011;20469;55.638;37.670;2024-01-11T08:10:45;3.67;;;0.90;;
34200;SDS011;20469;55.638;37.670;2024-01-11T08:13:13;7.35;;;1.40;;
34200;SDS011;20469;55.638;37.670;2024-01-11T08:15:41;4.47;;;1.00;;
34200;SDS011;20469;55.638;37.670;2024-01-11T08:18:09;3.45;;;1.20;;
34200;SDS011;20469;55.638;37.670;2024-01-11T08:20:37;1.85;;;0.85;;
34200;SDS011;20469;55.638;37.670;2024-01-11T08:23:05;5.57;;;1.00;;
34200;SDS011;20469;55.638;37.670;2024-01-11T08:25:36;1.77;;;0.95;;
34200;SDS011;20469;55.638;37.670;2024-01-11T08:28:06;4.65;;;0.90;;
34200;SDS011;20469;55.638;37.670;2024-01-11T08:30:34;5.85;;;1.40;;
34200;SDS011;20469;55.638;37.670;2024-01-11T08:33:02;3.38;;;1.00;;
34200;SDS011;20469;55.638;37.670;2024-01-11T08:35:30;8.88;;;1.85;;
34200;SDS011;20469;55.638;37.670;2024-01-11T08:37:59;1.83;;;1.00;;
34200;SDS011;20469;55.638;37.670;2024-01-11T08:40:27;3.50;;;1.00;;
34200;SDS011;20469;55.638;37.670;2024-01-11T08:42:55;4.05;;;0.95;;
34200;SDS011;20469;55.638;37.670;2024-01-11T08:45:22;5.30;;;1.30;;
34200;SDS011;20469;55.638;37.670;2024-01-11T08:47:50;2.30;;;1.23;;
34200;SDS011;20469;55.638;37.670;2024-01-11T08:50:19;5.40;;;1.40;;
34200;SDS011;20469;55.638;37.670;2024-01-11T08:52:51;4.95;;;1.15;;
34200;SDS011;20469;55.638;37.670;2024-01-11T08:55:19;2.55;;;0.93;;
34200;SDS011;20469;55.638;37.670;2024-01-11T08:57:46;3.08;;;1.05;;
34200;SDS011;20469;55.638;37.670;2024-01-11T09:00:15;6.70;;;1.30;;
34200;SDS011;20469;55.638;37.670;2024-01-11T09:02:45;6.75;;;1.60;;
34200;SDS011;20469;55.638;37.670;2024-01-11T09:05:14;2.47;;;1.23;;
34200;SDS011;20469;55.638;37.670;2024-01-11T09:07:43;2.65;;;1.20;;
34200;SDS011;20469;55.638;37.670;2024-01-11T09:10:11;1.70;;;0.90;;
34200;SDS011;20469;55.638;37.670;2024-01-11T09:12:39;2.92;;;1.00;;
34200;SDS011;20469;55.638;37.670;2024-01-11T09:15:06;1.15;;;0.80;;
34200;SDS011;20469;55.638;37.670;2024-01-11T09:17:34;1.17;;;0.93;;
34200;SDS011;20469;55.638;37.670;2024-01-11T09:20:03;3.05;;;1.02;;
34200;SDS011;20469;55.638;37.670;2024-01-11T09:22:32;3.60;;;0.80;;
34200;SDS011;20469;55.638;37.670;2024-01-11T09:25:00;0.85;;;0.80;;
34200;SDS011;20469;55.638;37.670;2024-01-11T09:27:30;1.83;;;0.80;;
34200;SDS011;20469;55.638;37.670;2024-01-11T09:29:58;0.80;;;0.80;;
34200;SDS011;20469;55.638;37.670;2024-01-11T09:32:26;2.30;;;0.80;;
34200;SDS011;20469;55.638;37.670;2024-01-11T09:34:54;1.63;;;0.95;;
34200;SDS011;20469;55.638;37.670;2024-01-11T09:37:23;1.42;;;0.80;;
34200;SDS011;20469;55.638;37.670;2024-01-11T09:39:51;1.23;;;0.95;;
34200;SDS011;20469;55.638;37.670;2024-01-11T09:42:18;3.90;;;1.20;;
34200;SDS011;20469;55.638;37.670;2024-01-11T09:44:46;8.43;;;1.73;;
34200;SDS011;20469;55.638;37.670;2024-01-11T09:47:15;1.30;;;1.13;;
34200;SDS011;20469;55.638;37.670;2024-01-11T09:49:44;1.60;;;1.35;;
34200;SDS011;20469;55.638;37.670;2024-01-11T09:52:12;6.88;;;1.90;;
34200;SDS011;20469;55.638;37.670;2024-01-11T09:54:43;1.63;;;1.10;;
34200;SDS011;20469;55.638;37.670;2024-01-11T09:57:11;2.08;;;1.58;;
34200;SDS011;20469;55.638;37.670;2024-01-11T09:59:40;1.63;;;1.45;;
34200;SDS011;20469;55.638;37.670;2024-01-11T10:02:09;6.63;;;1.90;;
34200;SDS011;20469;55.638;37.670;2024-01-11T10:04:37;2.65;;;1.27;;
34200;SDS011;20469;55.638;37.670;2024-01-11T10:07:05;2.25;;;1.20;;
34200;SDS011;20469;55.638;37.670;2024-01-11T10:09:33;1.88;;;1.10;;
34200;SDS011;20469;55.638;37.670;2024-01-11T10:12:01;2.25;;;1.02;;
34200;SDS011;20469;55.638;37.670;2024-01-11T10:14:30;2.35;;;1.23;;
34200;SDS011;20469;55.638;37.670;2024-01-11T10:16:58;2.90;;;0.98;;
34200;SDS011;20469;55.638;37.670;2024-01-11T10:19:27;2.33;;;1.30;;
34200;SDS011;20469;55.638;37.670;2024-01-11T10:21:55;3.22;;;1.23;;
34200;SDS011;20469;55.638;37.670;2024-01-11T10:24:25;2.45;;;1.17;;
34200;SDS011;20469;55.638;37.670;2024-01-11T10:26:57;1.98;;;1.65;;
34200;SDS011;20469;55.638;37.670;2024-01-11T10:29:29;1.05;;;0.90;;
34200;SDS011;20469;55.638;37.670;2024-01-11T10:31:57;1.30;;;1.00;;
34200;SDS011;20469;55.638;37.670;2024-01-11T10:34:25;4.13;;;1.00;;
34200;SDS011;20469;55.638;37.670;2024-01-11T10:36:53;1.65;;;0.90;;
34200;SDS011;20469;55.638;37.670;2024-01-11T10:39:24;1.00;;;0.80;;
34200;SDS011;20469;55.638;37.670;2024-01-11T10:42:05;1.13;;;0.80;;
34200;SDS011;20469;55.638;37.670;2024-01-11T10:44:34;0.80;;;0.80;;
34200;SDS011;20469;55.638;37.670;2024-01-11T10:47:03;1.90;;;1.20;;
34200;SDS011;20469;55.638;37.670;2024-01-11T10:49:34;12.07;;;2.05;;
34200;SDS011;20469;55.638;37.670;2024-01-11T10:52:04;3.28;;;0.90;;
34200;SDS011;20469;55.638;37.670;2024-01-11T10:54:33;1.00;;;0.90;;
34200;SDS011;20469;55.638;37.670;2024-01-11T10:57:02;1.40;;;1.00;;
34200;SDS011;20469;55.638;37.670;2024-01-11T10:59:32;0.95;;;0.90;;
34200;SDS011;20469;55.638;37.670;2024-01-11T11:02:05;2.85;;;1.40;;
34200;SDS011;20469;55.638;37.670;2024-01-11T11:04:34;1.67;;;1.10;;
34200;SDS011;20469;55.638;37.670;2024-01-11T11:07:05;1.80;;;1.27;;
34200;SDS011;20469;55.638;37.670;2024-01-11T11:09:37;1.05;;;0.93;;
34200;SDS011;20469;55.638;37.670;2024-01-11T11:12:05;2.25;;;1.17;;
34200;SDS011;20469;55.638;37.670;2024-01-11T11:14:34;1.85;;;1.00;;
34200;SDS011;20469;55.638;37.670;2024-01-11T11:17:02;1.83;;;0.90;;
34200;SDS011;20469;55.638;37.670;2024-01-11T11:19:31;0.77;;;0.77;;
34200;SDS011;20469;55.638;37.670;2024-01-11T11:21:59;1.48;;;1.10;;
34200;SDS011;20469;55.638;37.670;2024-01-11T11:24:33;2.10;;;1.20;;
34200;SDS011;20469;55.638;37.670;2024-01-11T11:27:02;2.22;;;1.10;;
34200;SDS011;20469;55.638;37.670;2024-01-11T11:29:30;3.25;;;1.40;;
34200;SDS011;20469;55.638;37.670;2024-01-11T11:31:58;3.03;;;1.00;;
34200;SDS011;20469;55.638;37.670;2024-01-11T11:34:41;1.13;;;0.90;;
34200;SDS011;20469;55.638;37.670;2024-01-11T11:37:12;1.25;;;1.10;;
34200;SDS011;20469;55.638;37.670;2024-01-11T11:39:41;2.05;;;1.20;;
34200;SDS011;20469;55.638;37.670;2024-01-11T11:42:09;1.95;;;0.90;;
34200;SDS011;20469;55.638;37.670;2024-01-11T11:44:47;1.05;;;0.95;;
34200;SDS011;20469;55.638;37.670;2024-01-11T11:49:58;1.08;;;0.98;;
34200;SDS011;20469;55.638;37.670;2024-01-11T11:52:33;2.95;;;1.30;;
34200;SDS011;20469;55.638;37.670;2024-01-11T11:55:02;1.15;;;1.00;;
34200;SDS011;20469;55.638;37.670;2024-01-11T11:57:33;1.65;;;1.10;;
34200;SDS011;20469;55.638;37.670;2024-01-11T12:00:01;1.98;;;1.30;;
34200;SDS011;20469;55.638;37.670;2024-01-11T12:02:32;1.40;;;1.02;;
34200;SDS011;20469;55.638;37.670;2024-01-11T12:05:03;1.87;;;1.00;;
34200;SDS011;20469;55.638;37.670;2024-01-11T12:07:31;2.57;;;1.50;;
34200;SDS011;20469;55.638;37.670;2024-01-11T12:09:59;3.23;;;1.63;;
34200;SDS011;20469;55.638;37.670;2024-01-11T12:12:30;2.23;;;1.17;;
34200;SDS011;20469;55.638;37.670;2024-01-11T12:14:58;1.50;;;1.10;;
34200;SDS011;20469;55.638;37.670;2024-01-11T12:17:26;1.93;;;1.27;;
34200;SDS011;20469;55.638;37.670;2024-01-11T12:19:54;2.10;;;1.20;;
34200;SDS011;20469;55.638;37.670;2024-01-11T12:22:23;2.33;;;1.43;;
34200;SDS011;20469;55.638;37.670;2024-01-11T12:24:51;2.87;;;1.50;;
34200;SDS011;20469;55.638;37.670;2024-01-11T12:27:20;2.97;;;1.43;;
34200;SDS011;20469;55.638;37.670;2024-01-11T12:29:48;1.70;;;1.30;;
34200;SDS011;20469;55.638;37.670;2024-01-11T12:32:24;2.50;;;1.30;;
34200;SDS011;20469;55.638;37.670;2024-01-11T12:34:53;2.57;;;1.30;;
34200;SDS011;20469;55.638;37.670;2024-01-11T12:37:22;2.33;;;1.40;;
34200;SDS011;20469;55.638;37.670;2024-01-11T12:39:56;4.10;;;1.77;;
34200;SDS011;20469;55.638;37.670;2024-01-11T12:42:24;2.43;;;1.43;;
34200;SDS011;20469;55.638;37.670;2024-01-11T12:44:52;3.20;;;1.70;;
34200;SDS011;20469;55.638;37.670;2024-01-11T12:47:23;2.03;;;1.57;;
34200;SDS011;20469;55.638;37.670;2024-01-11T12:49:53;4.30;;;1.37;;
34200;SDS011;20469;55.638;37.670;2024-01-11T12:52:21;3.47;;;1.60;;
34200;SDS011;20469;55.638;37.670;2024-01-11T12:57:23;3.10;;;1.63;;
34200;SDS011;20469;55.638;37.670;2024-01-11T12:59:53;1.77;;;1.23;;
34200;SDS011;20469;55.638;37.670;2024-01-11T13:02:21;2.17;;;1.67;;
34200;SDS011;20469;55.638;37.670;2024-01-11T13:04:50;2.40;;;1.37;;
34200;SDS011;20469;55.638;37.670;2024-01-11T13:07:18;3.23;;;1.70;;
34200;SDS011;20469;55.638;37.670;2024-01-11T13:09:50;2.43;;;1.17;;
34200;SDS011;20469;55.638;37.670;2024-01-11T13:12:17;2.77;;;1.40;;
34200;SDS011;20469;55.638;37.670;2024-01-11T13:14:47;1.87;;;1.10;;
34200;SDS011;20469;55.638;37.670;2024-01-11T13:17:15;1.90;;;1.30;;
34200;SDS011;20469;55.638;37.670;2024-01-11T13:19:44;3.20;;;1.70;;
34200;SDS011;20469;55.638;37.670;2024-01-11T13:22:12;1.90;;;1.20;;
34200;SDS011;20469;55.638;37.670;2024-01-11T13:24:39;3.23;;;1.63;;
34200;SDS011;20469;55.638;37.670;2024-01-11T13:27:08;3.13;;;1.60;;
34200;SDS011;20469;55.638;37.670;2024-01-11T13:29:36;2.43;;;1.40;;
34200;SDS011;20469;55.638;37.670;2024-01-11T13:32:05;2.27;;;1.20;;
34200;SDS011;20469;55.638;37.670;2024-01-11T13:34:33;2.73;;;1.87;;
34200;SDS011;20469;55.638;37.670;2024-01-11T13:37:00;2.80;;;1.80;;
34200;SDS011;20469;55.638;37.670;2024-01-11T13:39:30;2.53;;;1.60;;
34200;SDS011;20469;55.638;37.670;2024-01-11T13:41:58;2.53;;;1.80;;
34200;SDS011;20469;55.638;37.670;2024-01-11T13:44:26;4.50;;;2.30;;
34200;SDS011;20469;55.638;37.670;2024-01-11T13:46:53;3.50;;;2.00;;
34200;SDS011;20469;55.638;37.670;2024-01-11T13:49:23;2.47;;;1.70;;
34200;SDS011;20469;55.638;37.670;2024-01-11T13:51:52;2.13;;;1.63;;
34200;SDS011;20469;55.638;37.670;2024-01-11T13:54:27;2.00;;;1.63;;
34200;SDS011;20469;55.638;37.670;2024-01-11T13:56:55;3.37;;;1.87;;
34200;SDS011;20469;55.638;37.670;2024-01-11T13:59:23;2.13;;;1.30;;
34200;SDS011;20469;55.638;37.670;2024-01-11T14:01:51;2.90;;;1.70;;
34200;SDS011;20469;55.638;37.670;2024-01-11T14:04:19;5.53;;;3.20;;
34200;SDS011;20469;55.638;37.670;2024-01-11T14:06:50;4.67;;;1.83;;
34200;SDS011;20469;55.638;37.670;2024-01-11T14:09:19;4.43;;;1.93;;
34200;SDS011;20469;55.638;37.670;2024-01-11T14:11:48;2.87;;;1.70;;
34200;SDS011;20469;55.638;37.670;2024-01-11T14:14:16;3.47;;;2.27;;
34200;SDS011;20469;55.638;37.670;2024-01-11T14:16:45;2.60;;;1.60;;
34200;SDS011;20469;55.638;37.670;2024-01-11T14:19:13;5.40;;;2.00;;
34200;SDS011;20469;55.638;37.670;2024-01-11T14:21:42;3.53;;;1.67;;
34200;SDS011;20469;55.638;37.670;2024-01-11T14:24:09;3.33;;;1.80;;
34200;SDS011;20469;55.638;37.670;2024-01-11T14:26:39;4.87;;;1.80;;
34200;SDS011;20469;55.638;37.670;2024-01-11T14:29:07;2.67;;;1.93;;
34200;SDS011;20469;55.638;37.670;2024-01-11T14:31:35;2.97;;;1.80;;
34200;SDS011;20469;55.638;37.670;2024-01-11T14:34:04;3.10;;;1.80;;
34200;SDS011;20469;55.638;37.670;2024-01-11T14:36:32;5.33;;;1.70;;
34200;SDS011;20469;55.638;37.670;2024-01-11T14:39:00;2.87;;;1.70;;
34200;SDS011;20469;55.638;37.670;2024-01-11T14:41:31;3.60;;;1.83;;
34200;SDS011;20469;55.638;37.670;2024-01-11T14:43:59;2.90;;;1.80;;
34200;SDS011;20469;55.638;37.670;2024-01-11T14:46:28;2.30;;;1.70;;